sensor_id;sensor_type;location;lat;lon;timestamp;pressure;altitude;pressure_sealevel;temperature;humidity
3697;BME280;60662;48.810;8.872;2023-04-06T07:03:23;96753.63;;;3.73;60.42
3697;BME280;60662;48.810;8.872;2023-04-06T07:04:25;96755.97;;;3.88;59.70
3697;BME280;60662;48.810;8.872;2023-04-06T07:05:27;96750.81;;;3.90;59.42
3697;BME280;60662;48.810;8.872;2023-04-06T07:06:29;96750.63;;;3.99;59.25
3697;BME280;60662;48.810;8.872;2023-04-06T07:07:34;96744.31;;;4.16;59.17
3697;BME280;60662;48.810;8.872;2023-04-06T07:08:36;96748.00;;;4.02;59.37
3697;BME280;60662;48.810;8.872;2023-04-06T07:09:39;96750.84;;;4.37;58.67
3697;BME280;60662;48.810;8.872;2023-04-06T07:10:41;96743.06;;;4.84;57.73
3697;BME280;60662;48.810;8.872;2023-04-06T07:11:43;96747.25;;;4.89;57.47
3697;BME280;60662;48.810;8.872;2023-04-06T07:12:44;96743.28;;;5.14;57.23
3697;BME280;60662;48.810;8.872;2023-04-06T07:13:46;96747.16;;;5.35;55.88
3697;BME280;60662;48.810;8.872;2023-04-06T07:14:47;96745.53;;;5.68;55.22
3697;BME280;60662;48.810;8.872;2023-04-06T07:15:49;96740.50;;;5.23;55.66
3697;BME280;60662;48.810;8.872;2023-04-06T07:16:51;96742.09;;;5.29;56.68
3697;BME280;60662;48.810;8.872;2023-04-06T07:17:52;96747.31;;;5.27;56.32
3697;BME280;60662;48.810;8.872;2023-04-06T07:18:55;96746.44;;;5.66;55.52
3697;BME280;60662;48.810;8.872;2023-04-06T07:19:57;96751.63;;;6.03;55.03
3697;BME280;60662;48.810;8.872;2023-04-06T07:20:59;96750.88;;;6.33;54.13
3697;BME280;60662;48.810;8.872;2023-04-06T07:22:00;96749.78;;;6.75;53.46
3697;BME280;60662;48.810;8.872;2023-04-06T07:23:02;96740.75;;;7.18;52.22
3697;BME280;60662;48.810;8.872;2023-04-06T07:24:04;96751.75;;;6.96;52.30
3697;BME280;60662;48.810;8.872;2023-04-06T07:25:05;96745.78;;;7.24;52.33
3697;BME280;60662;48.810;8.872;2023-04-06T07:26:07;96747.47;;;7.54;51.31
3697;BME280;60662;48.810;8.872;2023-04-06T07:27:09;96740.09;;;7.68;51.22
3697;BME280;60662;48.810;8.872;2023-04-06T07:28:10;96753.31;;;7.60;50.87
3697;BME280;60662;48.810;8.872;2023-04-06T07:29:12;96746.97;;;7.97;50.79
3697;BME280;60662;48.810;8.872;2023-04-06T07:30:14;96743.81;;;7.88;50.60
3697;BME280;60662;48.810;8.872;2023-04-06T07:31:15;96747.94;;;7.38;51.30
3697;BME280;60662;48.810;8.872;2023-04-06T07:32:17;96755.97;;;7.59;51.82
3697;BME280;60662;48.810;8.872;2023-04-06T07:33:19;96755.06;;;8.15;50.33
3697;BME280;60662;48.810;8.872;2023-04-06T07:34:21;96745.72;;;7.82;50.67
3697;BME280;60662;48.810;8.872;2023-04-06T07:35:24;96744.25;;;8.27;50.43
3697;BME280;60662;48.810;8.872;2023-04-06T07:36:25;96748.03;;;8.69;49.14
3697;BME280;60662;48.810;8.872;2023-04-06T07:37:27;96742.50;;;8.78;49.13
3697;BME280;60662;48.810;8.872;2023-04-06T07:38:28;96751.88;;;9.08;48.25
3697;BME280;60662;48.810;8.872;2023-04-06T07:39:30;96734.66;;;8.80;48.67
3697;BME280;60662;48.810;8.872;2023-04-06T07:40:31;96749.94;;;8.89;48.91
3697;BME280;60662;48.810;8.872;2023-04-06T07:41:33;96745.00;;;9.05;48.88
3697;BME280;60662;48.810;8.872;2023-04-06T07:42:35;96752.22;;;9.22;48.45
3697;BME280;60662;48.810;8.872;2023-04-06T07:43:37;96749.53;;;9.47;47.67
3697;BME280;60662;48.810;8.872;2023-04-06T07:44:39;96752.44;;;9.62;47.21
3697;BME280;60662;48.810;8.872;2023-04-06T07:45:41;96753.44;;;9.36;48.01
3697;BME280;60662;48.810;8.872;2023-04-06T07:46:42;96743.78;;;9.61;47.63
3697;BME280;60662;48.810;8.872;2023-04-06T07:47:44;96753.81;;;9.71;47.31
3697;BME280;60662;48.810;8.872;2023-04-06T07:48:45;96743.81;;;9.82;46.90
3697;BME280;60662;48.810;8.872;2023-04-06T07:49:47;96751.56;;;9.84;47.01
3697;BME280;60662;48.810;8.872;2023-04-06T07:50:48;96754.00;;;9.88;46.73
3697;BME280;60662;48.810;8.872;2023-04-06T07:51:50;96753.63;;;10.20;45.91
3697;BME280;60662;48.810;8.872;2023-04-06T07:52:51;96750.28;;;10.16;45.69
3697;BME280;60662;48.810;8.872;2023-04-06T07:53:53;96746.66;;;10.41;45.84
3697;BME280;60662;48.810;8.872;2023-04-06T07:54:54;96753.88;;;10.13;45.90
3697;BME280;60662;48.810;8.872;2023-04-06T07:55:57;96751.53;;;10.90;44.95
3697;BME280;60662;48.810;8.872;2023-04-06T07:56:59;96753.16;;;10.92;44.64
3697;BME280;60662;48.810;8.872;2023-04-06T07:58:00;96756.59;;;10.93;44.47
3697;BME280;60662;48.810;8.872;2023-04-06T07:59:02;96756.63;;;11.50;43.79
3697;BME280;60662;48.810;8.872;2023-04-06T08:00:04;96752.88;;;11.75;43.12
3697;BME280;60662;48.810;8.872;2023-04-06T08:01:06;96751.22;;;11.55;43.13
3697;BME280;60662;48.810;8.872;2023-04-06T08:02:08;96753.91;;;11.15;44.36
3697;BME280;60662;48.810;8.872;2023-04-06T08:03:10;96754.63;;;11.38;44.18
3697;BME280;60662;48.810;8.872;2023-04-06T08:04:12;96746.25;;;11.49;43.81
3697;BME280;60662;48.810;8.872;2023-04-06T08:05:14;96753.59;;;11.02;44.57
3697;BME280;60662;48.810;8.872;2023-04-06T08:06:16;96750.09;;;10.83;45.05
3697;BME280;60662;48.810;8.872;2023-04-06T08:07:18;96750.59;;;11.31;44.29
3697;BME280;60662;48.810;8.872;2023-04-06T08:08:19;96749.22;;;11.60;43.97
3697;BME280;60662;48.810;8.872;2023-04-06T08:09:22;96741.53;;;11.38;43.52
3697;BME280;60662;48.810;8.872;2023-04-06T08:10:24;96754.50;;;10.82;44.57
3697;BME280;60662;48.810;8.872;2023-04-06T08:11:25;96754.88;;;10.93;44.77
3697;BME280;60662;48.810;8.872;2023-04-06T08:12:27;96761.97;;;10.90;45.00
3697;BME280;60662;48.810;8.872;2023-04-06T08:13:29;96750.91;;;10.64;45.88
3697;BME280;60662;48.810;8.872;2023-04-06T08:14:30;96755.16;;;10.46;45.64
3697;BME280;60662;48.810;8.872;2023-04-06T08:15:32;96757.25;;;10.58;45.58
3697;BME280;60662;48.810;8.872;2023-04-06T08:16:33;96748.72;;;10.74;45.94
3697;BME280;60662;48.810;8.872;2023-04-06T08:17:35;96753.91;;;10.75;45.17
3697;BME280;60662;48.810;8.872;2023-04-06T08:18:37;96741.25;;;11.06;44.00
3697;BME280;60662;48.810;8.872;2023-04-06T08:19:38;96746.50;;;11.25;43.25
3697;BME280;60662;48.810;8.872;2023-04-06T08:20:40;96748.16;;;11.07;43.46
3697;BME280;60662;48.810;8.872;2023-04-06T08:21:41;96746.34;;;11.09;43.14
3697;BME280;60662;48.810;8.872;2023-04-06T08:22:43;96754.09;;;11.30;42.41
3697;BME280;60662;48.810;8.872;2023-04-06T08:23:45;96742.53;;;10.76;41.67
3697;BME280;60662;48.810;8.872;2023-04-06T08:24:47;96749.28;;;11.01;40.72
3697;BME280;60662;48.810;8.872;2023-04-06T08:25:48;96744.88;;;11.22;40.38
3697;BME280;60662;48.810;8.872;2023-04-06T08:26:50;96750.19;;;10.81;40.44
3697;BME280;60662;48.810;8.872;2023-04-06T08:27:52;96746.78;;;10.79;39.72
3697;BME280;60662;48.810;8.872;2023-04-06T08:28:54;96750.50;;;11.13;38.83
3697;BME280;60662;48.810;8.872;2023-04-06T08:29:55;96755.19;;;11.44;39.73
3697;BME280;60662;48.810;8.872;2023-04-06T08:30:57;96749.50;;;11.35;38.99
3697;BME280;60662;48.810;8.872;2023-04-06T08:31:58;96750.16;;;11.21;38.40
3697;BME280;60662;48.810;8.872;2023-04-06T08:33:00;96750.38;;;11.16;38.35
3697;BME280;60662;48.810;8.872;2023-04-06T08:34:03;96750.34;;;10.97;38.11
3697;BME280;60662;48.810;8.872;2023-04-06T08:35:05;96745.63;;;10.45;37.74
3697;BME280;60662;48.810;8.872;2023-04-06T08:36:12;96745.91;;;10.39;38.41
3697;BME280;60662;48.810;8.872;2023-04-06T08:37:14;96748.81;;;10.52;38.31
3697;BME280;60662;48.810;8.872;2023-04-06T08:38:15;96745.53;;;11.07;38.20
3697;BME280;60662;48.810;8.872;2023-04-06T08:39:17;96746.41;;;11.46;37.87
3697;BME280;60662;48.810;8.872;2023-04-06T08:40:25;96744.16;;;11.38;38.13
3697;BME280;60662;48.810;8.872;2023-04-06T08:41:27;96750.44;;;11.72;37.56
3697;BME280;60662;48.810;8.872;2023-04-06T08:42:32;96746.78;;;10.79;38.06
3697;BME280;60662;48.810;8.872;2023-04-06T08:44:49;96746.78;;;10.79;38.76
3697;BME280;60662;48.810;8.872;2023-04-06T08:45:53;96752.13;;;11.16;38.33
3697;BME280;60662;48.810;8.872;2023-04-06T08:46:54;96743.56;;;11.12;38.92
3697;BME280;60662;48.810;8.872;2023-04-06T08:47:57;96730.72;;;11.07;39.15
3697;BME280;60662;48.810;8.872;2023-04-06T08:49:03;96745.66;;;10.85;38.46
3697;BME280;60662;48.810;8.872;2023-04-06T08:50:09;96735.84;;;10.50;38.83
3697;BME280;60662;48.810;8.872;2023-04-06T08:51:12;96743.50;;;10.94;38.63
3697;BME280;60662;48.810;8.872;2023-04-06T08:52:17;96741.03;;;11.10;37.81
3697;BME280;60662;48.810;8.872;2023-04-06T08:53:19;96735.31;;;11.02;37.56
3697;BME280;60662;48.810;8.872;2023-04-06T08:54:24;96748.25;;;11.24;38.39
3697;BME280;60662;48.810;8.872;2023-04-06T08:55:26;96743.28;;;10.99;38.03
3697;BME280;60662;48.810;8.872;2023-04-06T08:56:28;96736.69;;;10.90;38.02
3697;BME280;60662;48.810;8.872;2023-04-06T08:57:30;96747.63;;;10.80;38.49
3697;BME280;60662;48.810;8.872;2023-04-06T08:58:35;96743.09;;;11.04;38.57
3697;BME280;60662;48.810;8.872;2023-04-06T08:59:39;96743.81;;;11.26;38.30
3697;BME280;60662;48.810;8.872;2023-04-06T09:00:42;96744.63;;;11.08;37.63
3697;BME280;60662;48.810;8.872;2023-04-06T09:01:45;96740.47;;;11.04;38.13
3697;BME280;60662;48.810;8.872;2023-04-06T09:02:49;96743.72;;;11.47;37.90
3697;BME280;60662;48.810;8.872;2023-04-06T09:03:52;96745.34;;;10.51;38.29
3697;BME280;60662;48.810;8.872;2023-04-06T09:04:57;96747.38;;;10.44;38.35
3697;BME280;60662;48.810;8.872;2023-04-06T09:05:58;96742.22;;;10.43;38.29
3697;BME280;60662;48.810;8.872;2023-04-06T09:07:00;96747.28;;;10.48;38.57
3697;BME280;60662;48.810;8.872;2023-04-06T09:08:02;96738.69;;;10.65;37.70
3697;BME280;60662;48.810;8.872;2023-04-06T09:09:04;96738.66;;;10.45;38.00
3697;BME280;60662;48.810;8.872;2023-04-06T09:10:06;96736.22;;;11.01;38.63
3697;BME280;60662;48.810;8.872;2023-04-06T09:11:08;96737.41;;;11.51;37.78
3697;BME280;60662;48.810;8.872;2023-04-06T09:12:09;96745.50;;;11.66;37.56
3697;BME280;60662;48.810;8.872;2023-04-06T09:13:13;96703.44;;;10.75;37.38
3697;BME280;60662;48.810;8.872;2023-04-06T09:14:15;96750.31;;;10.57;38.41
3697;BME280;60662;48.810;8.872;2023-04-06T09:15:21;96744.50;;;10.51;38.09
3697;BME280;60662;48.810;8.872;2023-04-06T09:16:25;96745.41;;;10.50;37.13
3697;BME280;60662;48.810;8.872;2023-04-06T09:17:28;96741.91;;;10.51;37.69
3697;BME280;60662;48.810;8.872;2023-04-06T09:18:32;96748.09;;;10.48;37.13
3697;BME280;60662;48.810;8.872;2023-04-06T09:19:33;96750.19;;;10.60;37.78
3697;BME280;60662;48.810;8.872;2023-04-06T09:20:35;96746.94;;;10.33;38.70
3697;BME280;60662;48.810;8.872;2023-04-06T09:21:37;96749.31;;;10.19;39.29
3697;BME280;60662;48.810;8.872;2023-04-06T09:22:39;96742.56;;;10.13;38.97
3697;BME280;60662;48.810;8.872;2023-04-06T09:23:41;96744.41;;;9.89;38.85
3697;BME280;60662;48.810;8.872;2023-04-06T09:24:47;96753.53;;;10.64;36.91
3697;BME280;60662;48.810;8.872;2023-04-06T09:25:49;96746.69;;;10.19;37.92
3697;BME280;60662;48.810;8.872;2023-04-06T09:26:51;96749.28;;;9.98;37.45
3697;BME280;60662;48.810;8.872;2023-04-06T09:28:00;96735.09;;;10.67;37.07
3697;BME280;60662;48.810;8.872;2023-04-06T09:29:01;96731.25;;;10.76;37.02
3697;BME280;60662;48.810;8.872;2023-04-06T09:30:11;96742.09;;;10.67;36.55
3697;BME280;60662;48.810;8.872;2023-04-06T09:31:17;96748.09;;;10.89;36.22
3697;BME280;60662;48.810;8.872;2023-04-06T09:32:23;96753.63;;;11.21;36.27
3697;BME280;60662;48.810;8.872;2023-04-06T09:33:24;96737.06;;;11.21;35.56
3697;BME280;60662;48.810;8.872;2023-04-06T09:34:26;96741.56;;;12.11;35.43
3697;BME280;60662;48.810;8.872;2023-04-06T09:35:27;96738.94;;;12.81;35.68
3697;BME280;60662;48.810;8.872;2023-04-06T09:36:35;96739.56;;;13.36;34.89
3697;BME280;60662;48.810;8.872;2023-04-06T09:37:39;96728.06;;;12.38;34.99
3697;BME280;60662;48.810;8.872;2023-04-06T09:39:05;96736.19;;;11.97;35.49
3697;BME280;60662;48.810;8.872;2023-04-06T09:40:07;96741.31;;;11.23;36.07
3697;BME280;60662;48.810;8.872;2023-04-06T09:41:09;96738.84;;;11.20;36.32
3697;BME280;60662;48.810;8.872;2023-04-06T09:42:34;96740.94;;;11.12;36.68
3697;BME280;60662;48.810;8.872;2023-04-06T09:43:33;96750.06;;;10.21;36.41
3697;BME280;60662;48.810;8.872;2023-04-06T09:44:35;96731.78;;;9.57;36.76
3697;BME280;60662;48.810;8.872;2023-04-06T09:45:37;96739.84;;;9.27;37.45
3697;BME280;60662;48.810;8.872;2023-04-06T09:46:40;96741.03;;;9.42;37.34
3697;BME280;60662;48.810;8.872;2023-04-06T09:48:00;96723.81;;;9.60;37.57
3697;BME280;60662;48.810;8.872;2023-04-06T09:49:02;96746.19;;;9.44;38.32
3697;BME280;60662;48.810;8.872;2023-04-06T09:50:05;96743.44;;;10.34;37.73
3697;BME280;60662;48.810;8.872;2023-04-06T09:51:06;96744.25;;;10.97;36.91
3697;BME280;60662;48.810;8.872;2023-04-06T09:52:11;96731.50;;;12.21;36.19
3697;BME280;60662;48.810;8.872;2023-04-06T09:53:13;96740.41;;;11.43;36.45
3697;BME280;60662;48.810;8.872;2023-04-06T09:54:18;96727.66;;;12.97;35.47
3697;BME280;60662;48.810;8.872;2023-04-06T09:55:27;96745.41;;;13.07;34.46
3697;BME280;60662;48.810;8.872;2023-04-06T09:57:01;96736.88;;;12.70;34.61
3697;BME280;60662;48.810;8.872;2023-04-06T09:58:06;96738.81;;;11.97;35.90
3697;BME280;60662;48.810;8.872;2023-04-06T09:59:13;96733.69;;;11.93;36.04
3697;BME280;60662;48.810;8.872;2023-04-06T10:00:17;96735.25;;;11.98;35.45
3697;BME280;60662;48.810;8.872;2023-04-06T10:01:22;96739.44;;;12.37;34.82
3697;BME280;60662;48.810;8.872;2023-04-06T10:03:00;96730.19;;;12.47;34.39
3697;BME280;60662;48.810;8.872;2023-04-06T10:04:13;96741.50;;;12.65;33.46
3697;BME280;60662;48.810;8.872;2023-04-06T10:05:20;96739.91;;;12.10;34.72
3697;BME280;60662;48.810;8.872;2023-04-06T10:06:25;96734.34;;;12.34;35.28
3697;BME280;60662;48.810;8.872;2023-04-06T10:07:28;96730.72;;;12.36;34.14
3697;BME280;60662;48.810;8.872;2023-04-06T10:08:33;96735.66;;;12.43;34.68
3697;BME280;60662;48.810;8.872;2023-04-06T10:09:37;96728.38;;;12.32;33.94
3697;BME280;60662;48.810;8.872;2023-04-06T10:10:39;96736.06;;;12.35;33.67
3697;BME280;60662;48.810;8.872;2023-04-06T10:11:41;96740.69;;;12.47;33.63
3697;BME280;60662;48.810;8.872;2023-04-06T10:12:43;96730.75;;;12.87;33.61
3697;BME280;60662;48.810;8.872;2023-04-06T10:13:47;96733.09;;;12.76;33.07
3697;BME280;60662;48.810;8.872;2023-04-06T10:14:50;96734.25;;;12.70;33.12
3697;BME280;60662;48.810;8.872;2023-04-06T10:15:52;96742.03;;;12.72;32.94
3697;BME280;60662;48.810;8.872;2023-04-06T10:16:54;96723.72;;;12.19;33.18
3697;BME280;60662;48.810;8.872;2023-04-06T10:18:00;96730.63;;;12.55;33.04
3697;BME280;60662;48.810;8.872;2023-04-06T10:19:10;96728.06;;;12.38;33.52
3697;BME280;60662;48.810;8.872;2023-04-06T10:20:21;96732.13;;;12.44;33.64
3697;BME280;60662;48.810;8.872;2023-04-06T10:21:25;96731.03;;;12.48;32.96
3697;BME280;60662;48.810;8.872;2023-04-06T10:22:55;96735.47;;;13.14;32.95
3697;BME280;60662;48.810;8.872;2023-04-06T10:24:01;96723.25;;;12.64;33.29
3697;BME280;60662;48.810;8.872;2023-04-06T10:25:08;96731.72;;;13.02;33.68
3697;BME280;60662;48.810;8.872;2023-04-06T10:26:15;96734.44;;;12.32;33.86
3697;BME280;60662;48.810;8.872;2023-04-06T10:27:27;96734.97;;;12.39;33.17
3697;BME280;60662;48.810;8.872;2023-04-06T10:28:33;96727.72;;;12.62;33.41
3697;BME280;60662;48.810;8.872;2023-04-06T10:29:44;96731.66;;;14.16;33.34
3697;BME280;60662;48.810;8.872;2023-04-06T10:30:46;96734.00;;;14.20;32.21
3697;BME280;60662;48.810;8.872;2023-04-06T10:31:48;96727.31;;;14.15;31.21
3697;BME280;60662;48.810;8.872;2023-04-06T10:32:50;96721.56;;;14.98;30.83
3697;BME280;60662;48.810;8.872;2023-04-06T10:33:58;96720.34;;;14.75;30.83
3697;BME280;60662;48.810;8.872;2023-04-06T10:35:11;96722.56;;;15.39;31.10
3697;BME280;60662;48.810;8.872;2023-04-06T10:36:24;96727.63;;;14.55;30.92
3697;BME280;60662;48.810;8.872;2023-04-06T10:37:27;96732.78;;;14.57;31.56
3697;BME280;60662;48.810;8.872;2023-04-06T10:38:39;96726.47;;;15.18;31.98
3697;BME280;60662;48.810;8.872;2023-04-06T10:39:52;96732.94;;;14.84;31.01
3697;BME280;60662;48.810;8.872;2023-04-06T10:41:04;96718.72;;;14.58;31.73
3697;BME280;60662;48.810;8.872;2023-04-06T10:42:06;96726.28;;;15.22;30.29
3697;BME280;60662;48.810;8.872;2023-04-06T10:43:12;96725.00;;;15.98;30.58
3697;BME280;60662;48.810;8.872;2023-04-06T10:44:24;96718.69;;;16.54;30.60
3697;BME280;60662;48.810;8.872;2023-04-06T10:45:26;96725.34;;;15.64;29.81
3697;BME280;60662;48.810;8.872;2023-04-06T10:46:33;96723.25;;;16.77;28.75
3697;BME280;60662;48.810;8.872;2023-04-06T10:47:41;96723.53;;;15.23;29.82
3697;BME280;60662;48.810;8.872;2023-04-06T10:48:45;96723.16;;;15.71;30.09
3697;BME280;60662;48.810;8.872;2023-04-06T10:49:48;96723.16;;;16.79;28.07
3697;BME280;60662;48.810;8.872;2023-04-06T10:50:51;96720.34;;;15.89;28.76
3697;BME280;60662;48.810;8.872;2023-04-06T10:51:54;96715.81;;;16.44;28.46
3697;BME280;60662;48.810;8.872;2023-04-06T10:53:00;96724.38;;;16.07;28.54
3697;BME280;60662;48.810;8.872;2023-04-06T10:54:03;96722.34;;;15.56;29.80
3697;BME280;60662;48.810;8.872;2023-04-06T10:55:08;96705.78;;;16.23;29.18
3697;BME280;60662;48.810;8.872;2023-04-06T10:56:14;96713.53;;;17.67;28.88
3697;BME280;60662;48.810;8.872;2023-04-06T10:57:27;96704.16;;;17.12;28.95
3697;BME280;60662;48.810;8.872;2023-04-06T10:58:29;96698.13;;;16.59;28.63
3697;BME280;60662;48.810;8.872;2023-04-06T10:59:31;96703.19;;;17.26;29.56
3697;BME280;60662;48.810;8.872;2023-04-06T11:00:34;96701.97;;;18.29;28.47
3697;BME280;60662;48.810;8.872;2023-04-06T11:01:49;96702.50;;;19.04;27.93
3697;BME280;60662;48.810;8.872;2023-04-06T11:02:58;96706.94;;;19.03;27.01
3697;BME280;60662;48.810;8.872;2023-04-06T11:04:00;96709.91;;;18.05;27.38
3697;BME280;60662;48.810;8.872;2023-04-06T11:05:02;96707.31;;;17.18;27.63
3697;BME280;60662;48.810;8.872;2023-04-06T11:06:04;96711.25;;;14.50;29.88
3697;BME280;60662;48.810;8.872;2023-04-06T11:07:05;96715.53;;;13.92;31.06
3697;BME280;60662;48.810;8.872;2023-04-06T11:08:07;96710.84;;;15.44;29.72
3697;BME280;60662;48.810;8.872;2023-04-06T11:09:08;96707.75;;;16.98;28.63
3697;BME280;60662;48.810;8.872;2023-04-06T11:10:10;96707.34;;;16.13;27.93
3697;BME280;60662;48.810;8.872;2023-04-06T11:11:20;96707.84;;;13.57;30.49
3697;BME280;60662;48.810;8.872;2023-04-06T11:12:26;96710.78;;;13.18;32.16
3697;BME280;60662;48.810;8.872;2023-04-06T11:13:44;96688.69;;;15.34;29.89
3697;BME280;60662;48.810;8.872;2023-04-06T11:14:59;96689.78;;;14.43;30.64
3697;BME280;60662;48.810;8.872;2023-04-06T11:16:05;96699.72;;;16.87;29.14
3697;BME280;60662;48.810;8.872;2023-04-06T11:17:07;96699.91;;;16.45;28.59
3697;BME280;60662;48.810;8.872;2023-04-06T11:18:10;96700.53;;;15.68;28.83
3697;BME280;60662;48.810;8.872;2023-04-06T11:19:12;96698.13;;;14.95;30.46
3697;BME280;60662;48.810;8.872;2023-04-06T11:20:15;96681.88;;;15.72;29.87
3697;BME280;60662;48.810;8.872;2023-04-06T11:21:17;96691.31;;;14.17;29.52
3697;BME280;60662;48.810;8.872;2023-04-06T11:22:18;96696.19;;;13.93;30.30
3697;BME280;60662;48.810;8.872;2023-04-06T11:23:24;96689.59;;;14.46;29.89
3697;BME280;60662;48.810;8.872;2023-04-06T11:24:28;96690.59;;;13.99;29.41
3697;BME280;60662;48.810;8.872;2023-04-06T11:25:30;96689.56;;;13.55;30.30
3697;BME280;60662;48.810;8.872;2023-04-06T11:26:53;96693.63;;;13.61;30.89
3697;BME280;60662;48.810;8.872;2023-04-06T11:27:55;96682.81;;;14.42;29.93
3697;BME280;60662;48.810;8.872;2023-04-06T11:28:56;96688.59;;;14.18;31.31
3697;BME280;60662;48.810;8.872;2023-04-06T11:29:59;96658.03;;;14.77;30.93
3697;BME280;60662;48.810;8.872;2023-04-06T11:31:01;96687.31;;;15.41;30.40
3697;BME280;60662;48.810;8.872;2023-04-06T11:32:05;96689.72;;;15.17;29.98
3697;BME280;60662;48.810;8.872;2023-04-06T11:33:07;96684.38;;;15.18;30.10
3697;BME280;60662;48.810;8.872;2023-04-06T11:34:10;96682.44;;;13.73;30.83
3697;BME280;60662;48.810;8.872;2023-04-06T11:35:24;96686.00;;;15.48;30.88
3697;BME280;60662;48.810;8.872;2023-04-06T11:36:29;96672.00;;;15.75;29.03
3697;BME280;60662;48.810;8.872;2023-04-06T11:37:31;96683.41;;;15.34;29.40
3697;BME280;60662;48.810;8.872;2023-04-06T11:38:34;96678.13;;;15.76;29.54
3697;BME280;60662;48.810;8.872;2023-04-06T11:40:43;96677.44;;;16.14;29.17
3697;BME280;60662;48.810;8.872;2023-04-06T11:41:51;96670.09;;;16.45;29.31
3697;BME280;60662;48.810;8.872;2023-04-06T11:42:54;96670.59;;;16.37;28.97
3697;BME280;60662;48.810;8.872;2023-04-06T11:43:56;96674.72;;;17.06;28.67
3697;BME280;60662;48.810;8.872;2023-04-06T11:44:58;96666.69;;;16.43;28.97
3697;BME280;60662;48.810;8.872;2023-04-06T11:46:02;96661.66;;;16.53;29.28
3697;BME280;60662;48.810;8.872;2023-04-06T11:47:08;96671.91;;;16.04;28.85
3697;BME280;60662;48.810;8.872;2023-04-06T11:48:19;96672.75;;;14.94;30.23
3697;BME280;60662;48.810;8.872;2023-04-06T11:49:31;96667.41;;;14.95;30.79
3697;BME280;60662;48.810;8.872;2023-04-06T11:50:33;96662.31;;;15.21;30.85
3697;BME280;60662;48.810;8.872;2023-04-06T11:51:37;96674.00;;;15.30;29.92
3697;BME280;60662;48.810;8.872;2023-04-06T11:52:41;96674.94;;;15.43;30.25
3697;BME280;60662;48.810;8.872;2023-04-06T11:53:45;96665.00;;;14.33;30.24
3697;BME280;60662;48.810;8.872;2023-04-06T11:54:48;96667.31;;;14.68;30.45
3697;BME280;60662;48.810;8.872;2023-04-06T11:55:50;96661.03;;;14.85;30.83
3697;BME280;60662;48.810;8.872;2023-04-06T11:56:51;96655.09;;;13.77;31.07
3697;BME280;60662;48.810;8.872;2023-04-06T11:57:53;96661.16;;;13.47;30.95
3697;BME280;60662;48.810;8.872;2023-04-06T11:58:58;96663.19;;;14.19;30.44
3697;BME280;60662;48.810;8.872;2023-04-06T12:00:01;96663.84;;;14.23;30.38
3697;BME280;60662;48.810;8.872;2023-04-06T12:01:03;96655.28;;;14.93;30.12
3697;BME280;60662;48.810;8.872;2023-04-06T12:02:05;96619.25;;;14.66;30.27
3697;BME280;60662;48.810;8.872;2023-04-06T12:03:07;96651.78;;;14.04;30.32
3697;BME280;60662;48.810;8.872;2023-04-06T12:04:08;96655.22;;;14.20;30.30
3697;BME280;60662;48.810;8.872;2023-04-06T12:05:10;96654.41;;;14.04;31.02
3697;BME280;60662;48.810;8.872;2023-04-06T12:06:11;96636.59;;;13.95;30.76
3697;BME280;60662;48.810;8.872;2023-04-06T12:07:13;96655.75;;;14.85;30.36
3697;BME280;60662;48.810;8.872;2023-04-06T12:08:15;96654.13;;;13.94;30.57
3697;BME280;60662;48.810;8.872;2023-04-06T12:09:17;96657.25;;;15.04;29.81
3697;BME280;60662;48.810;8.872;2023-04-06T12:10:21;96659.19;;;15.56;29.93
3697;BME280;60662;48.810;8.872;2023-04-06T12:11:23;96658.28;;;14.86;29.51
3697;BME280;60662;48.810;8.872;2023-04-06T12:12:24;96651.91;;;16.14;29.51
3697;BME280;60662;48.810;8.872;2023-04-06T12:13:26;96630.44;;;16.21;28.90
3697;BME280;60662;48.810;8.872;2023-04-06T12:14:29;96646.75;;;15.45;29.06
3697;BME280;60662;48.810;8.872;2023-04-06T12:15:32;96645.72;;;15.33;30.15
3697;BME280;60662;48.810;8.872;2023-04-06T12:16:34;96649.94;;;15.36;30.71
3697;BME280;60662;48.810;8.872;2023-04-06T12:17:36;96654.06;;;14.55;31.89
3697;BME280;60662;48.810;8.872;2023-04-06T12:18:38;96653.75;;;15.03;31.64
3697;BME280;60662;48.810;8.872;2023-04-06T12:19:39;96648.06;;;15.38;30.35
3697;BME280;60662;48.810;8.872;2023-04-06T12:20:41;96644.41;;;15.41;30.19
3697;BME280;60662;48.810;8.872;2023-04-06T12:21:43;96646.13;;;15.27;30.40
3697;BME280;60662;48.810;8.872;2023-04-06T12:22:44;96638.06;;;15.16;30.31
3697;BME280;60662;48.810;8.872;2023-04-06T12:23:46;96636.19;;;15.87;30.18
3697;BME280;60662;48.810;8.872;2023-04-06T12:24:48;96644.63;;;16.05;29.68
3697;BME280;60662;48.810;8.872;2023-04-06T12:25:49;96634.38;;;15.88;29.60
3697;BME280;60662;48.810;8.872;2023-04-06T12:26:52;96643.72;;;16.58;29.21
3697;BME280;60662;48.810;8.872;2023-04-06T12:28:07;96635.81;;;16.45;29.75
3697;BME280;60662;48.810;8.872;2023-04-06T12:29:08;96629.38;;;16.23;29.65
3697;BME280;60662;48.810;8.872;2023-04-06T12:30:10;96640.06;;;15.54;30.45
3697;BME280;60662;48.810;8.872;2023-04-06T12:31:22;96637.25;;;15.70;29.86
3697;BME280;60662;48.810;8.872;2023-04-06T12:32:24;96632.47;;;15.62;29.76
3697;BME280;60662;48.810;8.872;2023-04-06T12:33:26;96635.00;;;16.44;30.08
3697;BME280;60662;48.810;8.872;2023-04-06T12:34:27;96634.00;;;15.25;29.98
3697;BME280;60662;48.810;8.872;2023-04-06T12:35:33;96636.78;;;15.09;30.59
3697;BME280;60662;48.810;8.872;2023-04-06T12:36:36;96632.28;;;15.38;30.31
3697;BME280;60662;48.810;8.872;2023-04-06T12:37:38;96631.66;;;16.02;30.06
3697;BME280;60662;48.810;8.872;2023-04-06T12:38:40;96627.81;;;16.21;29.98
3697;BME280;60662;48.810;8.872;2023-04-06T12:39:42;96630.28;;;15.83;29.48
3697;BME280;60662;48.810;8.872;2023-04-06T12:40:45;96636.31;;;15.02;30.60
3697;BME280;60662;48.810;8.872;2023-04-06T12:41:47;96610.81;;;15.31;30.68
3697;BME280;60662;48.810;8.872;2023-04-06T12:42:48;96625.47;;;15.48;30.74
3697;BME280;60662;48.810;8.872;2023-04-06T12:43:50;96624.44;;;15.78;30.64
3697;BME280;60662;48.810;8.872;2023-04-06T12:44:51;96629.59;;;15.52;31.08
3697;BME280;60662;48.810;8.872;2023-04-06T12:45:53;96622.53;;;15.40;31.07
3697;BME280;60662;48.810;8.872;2023-04-06T12:46:55;96615.75;;;15.36;30.83
3697;BME280;60662;48.810;8.872;2023-04-06T12:47:58;96630.00;;;15.74;30.33
3697;BME280;60662;48.810;8.872;2023-04-06T12:48:59;96629.34;;;15.85;29.54